sensor_id;sensor_type;location;lat;lon;timestamp;temperature;humidity
33414;DHT22;60055;41.884;12.534;2023-01-30T00:00:55;6.10;99.90
33414;DHT22;60055;41.884;12.534;2023-01-30T00:03:21;6.00;99.90
33414;DHT22;60055;41.884;12.534;2023-01-30T00:05:50;6.10;99.90
33414;DHT22;60055;41.884;12.534;2023-01-30T00:08:16;6.10;99.90
33414;DHT22;60055;41.884;12.534;2023-01-30T00:10:42;6.10;99.90
33414;DHT22;60055;41.884;12.534;2023-01-30T00:13:08;6.10;99.90
33414;DHT22;60055;41.884;12.534;2023-01-30T00:15:35;6.10;99.90
33414;DHT22;60055;41.884;12.534;2023-01-30T00:18:00;6.10;99.90
33414;DHT22;60055;41.884;12.534;2023-01-30T00:20:26;6.00;99.90
33414;DHT22;60055;41.884;12.534;2023-01-30T00:22:52;6.00;99.90
33414;DHT22;60055;41.884;12.534;2023-01-30T00:25:19;6.00;99.90
33414;DHT22;60055;41.884;12.534;2023-01-30T00:27:44;6.00;99.90
33414;DHT22;60055;41.884;12.534;2023-01-30T00:30:10;6.00;99.90
33414;DHT22;60055;41.884;12.534;2023-01-30T00:32:36;5.90;99.90
33414;DHT22;60055;41.884;12.534;2023-01-30T00:35:02;6.00;99.90
33414;DHT22;60055;41.884;12.534;2023-01-30T00:37:27;5.90;99.90
33414;DHT22;60055;41.884;12.534;2023-01-30T00:39:53;6.00;99.90
33414;DHT22;60055;41.884;12.534;2023-01-30T00:42:18;6.10;99.90
33414;DHT22;60055;41.884;12.534;2023-01-30T00:45:03;6.00;99.90
33414;DHT22;60055;41.884;12.534;2023-01-30T00:47:48;5.90;99.90
33414;DHT22;60055;41.884;12.534;2023-01-30T00:50:15;5.90;99.90
33414;DHT22;60055;41.884;12.534;2023-01-30T00:52:40;5.80;99.90
33414;DHT22;60055;41.884;12.534;2023-01-30T00:55:06;5.70;99.90
33414;DHT22;60055;41.884;12.534;2023-01-30T00:57:32;5.70;99.90
33414;DHT22;60055;41.884;12.534;2023-01-30T00:59:58;5.70;99.90
33414;DHT22;60055;41.884;12.534;2023-01-30T01:02:23;5.80;99.90
33414;DHT22;60055;41.884;12.534;2023-01-30T01:04:49;5.70;99.90
33414;DHT22;60055;41.884;12.534;2023-01-30T01:07:15;5.60;99.90
33414;DHT22;60055;41.884;12.534;2023-01-30T01:09:40;5.50;99.90
33414;DHT22;60055;41.884;12.534;2023-01-30T01:12:06;5.50;99.90
33414;DHT22;60055;41.884;12.534;2023-01-30T01:14:33;5.70;99.90
33414;DHT22;60055;41.884;12.534;2023-01-30T01:16:59;5.60;99.90
33414;DHT22;60055;41.884;12.534;2023-01-30T01:19:24;5.40;99.90
33414;DHT22;60055;41.884;12.534;2023-01-30T01:21:50;5.30;99.90
33414;DHT22;60055;41.884;12.534;2023-01-30T01:24:17;5.40;99.90
33414;DHT22;60055;41.884;12.534;2023-01-30T01:26:43;5.50;99.90
33414;DHT22;60055;41.884;12.534;2023-01-30T01:29:14;5.50;99.90
33414;DHT22;60055;41.884;12.534;2023-01-30T01:31:41;5.50;99.90
33414;DHT22;60055;41.884;12.534;2023-01-30T01:34:07;5.60;99.90
33414;DHT22;60055;41.884;12.534;2023-01-30T01:36:33;5.50;99.90
33414;DHT22;60055;41.884;12.534;2023-01-30T01:38:58;5.50;99.90
33414;DHT22;60055;41.884;12.534;2023-01-30T01:41:24;5.50;99.90
33414;DHT22;60055;41.884;12.534;2023-01-30T01:44:06;5.40;99.90
33414;DHT22;60055;41.884;12.534;2023-01-30T01:46:58;5.50;99.90
33414;DHT22;60055;41.884;12.534;2023-01-30T01:49:30;5.50;99.90
33414;DHT22;60055;41.884;12.534;2023-01-30T01:52:04;5.30;99.90
33414;DHT22;60055;41.884;12.534;2023-01-30T01:54:51;5.20;99.90
33414;DHT22;60055;41.884;12.534;2023-01-30T01:57:21;5.10;99.90
33414;DHT22;60055;41.884;12.534;2023-01-30T02:00:11;5.10;99.90
33414;DHT22;60055;41.884;12.534;2023-01-30T02:02:40;5.00;99.90
33414;DHT22;60055;41.884;12.534;2023-01-30T02:05:08;5.10;99.90
33414;DHT22;60055;41.884;12.534;2023-01-30T02:07:36;5.00;99.90
33414;DHT22;60055;41.884;12.534;2023-01-30T02:10:04;4.90;99.90
33414;DHT22;60055;41.884;12.534;2023-01-30T02:12:31;4.80;99.90
33414;DHT22;60055;41.884;12.534;2023-01-30T02:14:58;4.70;99.90
33414;DHT22;60055;41.884;12.534;2023-01-30T02:17:24;4.80;99.90
33414;DHT22;60055;41.884;12.534;2023-01-30T02:19:53;4.90;99.90
33414;DHT22;60055;41.884;12.534;2023-01-30T02:38:48;4.80;99.90
33414;DHT22;60055;41.884;12.534;2023-01-30T02:41:48;4.80;99.90
33414;DHT22;60055;41.884;12.534;2023-01-30T02:47:09;4.80;99.90
33414;DHT22;60055;41.884;12.534;2023-01-30T02:49:43;4.70;99.90
33414;DHT22;60055;41.884;12.534;2023-01-30T02:52:11;4.70;99.90
33414;DHT22;60055;41.884;12.534;2023-01-30T02:54:39;4.70;99.90
33414;DHT22;60055;41.884;12.534;2023-01-30T02:57:20;4.70;99.90
33414;DHT22;60055;41.884;12.534;2023-01-30T02:59:58;4.70;99.90
33414;DHT22;60055;41.884;12.534;2023-01-30T03:05:34;4.60;99.90
33414;DHT22;60055;41.884;12.534;2023-01-30T03:08:24;4.60;99.90
33414;DHT22;60055;41.884;12.534;2023-01-30T03:11:01;4.50;99.90
33414;DHT22;60055;41.884;12.534;2023-01-30T03:14:12;4.50;99.90
33414;DHT22;60055;41.884;12.534;2023-01-30T03:16:42;4.50;99.90
33414;DHT22;60055;41.884;12.534;2023-01-30T03:19:10;4.40;99.90
33414;DHT22;60055;41.884;12.534;2023-01-30T03:21:43;4.60;99.90
33414;DHT22;60055;41.884;12.534;2023-01-30T03:24:11;4.70;99.90
33414;DHT22;60055;41.884;12.534;2023-01-30T03:26:52;4.60;99.90
33414;DHT22;60055;41.884;12.534;2023-01-30T03:29:18;4.60;99.90
33414;DHT22;60055;41.884;12.534;2023-01-30T03:31:44;4.50;99.90
33414;DHT22;60055;41.884;12.534;2023-01-30T03:34:10;4.50;99.90
33414;DHT22;60055;41.884;12.534;2023-01-30T03:36:36;4.60;99.90
33414;DHT22;60055;41.884;12.534;2023-01-30T03:39:02;4.60;99.90
33414;DHT22;60055;41.884;12.534;2023-01-30T03:41:27;4.60;99.90
33414;DHT22;60055;41.884;12.534;2023-01-30T03:43:53;4.60;99.90
33414;DHT22;60055;41.884;12.534;2023-01-30T03:46:19;4.60;99.90
33414;DHT22;60055;41.884;12.534;2023-01-30T03:48:44;4.50;99.90
33414;DHT22;60055;41.884;12.534;2023-01-30T03:51:10;4.50;99.90
33414;DHT22;60055;41.884;12.534;2023-01-30T03:53:36;4.50;99.90
33414;DHT22;60055;41.884;12.534;2023-01-30T03:56:01;4.50;99.90
33414;DHT22;60055;41.884;12.534;2023-01-30T03:58:27;4.50;99.90
33414;DHT22;60055;41.884;12.534;2023-01-30T04:00:55;4.40;99.90
33414;DHT22;60055;41.884;12.534;2023-01-30T04:03:22;4.30;99.90
33414;DHT22;60055;41.884;12.534;2023-01-30T04:05:49;4.30;99.90
33414;DHT22;60055;41.884;12.534;2023-01-30T04:08:15;4.40;99.90
33414;DHT22;60055;41.884;12.534;2023-01-30T04:10:41;4.30;99.90
33414;DHT22;60055;41.884;12.534;2023-01-30T04:13:06;4.40;99.90
33414;DHT22;60055;41.884;12.534;2023-01-30T04:15:35;4.40;99.90
33414;DHT22;60055;41.884;12.534;2023-01-30T04:18:00;4.40;99.90
33414;DHT22;60055;41.884;12.534;2023-01-30T04:20:26;4.10;99.90
33414;DHT22;60055;41.884;12.534;2023-01-30T04:22:53;4.20;99.90
33414;DHT22;60055;41.884;12.534;2023-01-30T04:25:19;4.20;99.90
33414;DHT22;60055;41.884;12.534;2023-01-30T04:27:45;4.20;99.90
33414;DHT22;60055;41.884;12.534;2023-01-30T04:30:11;4.30;99.90
33414;DHT22;60055;41.884;12.534;2023-01-30T04:32:36;4.30;99.90
33414;DHT22;60055;41.884;12.534;2023-01-30T04:35:02;4.20;99.90
33414;DHT22;60055;41.884;12.534;2023-01-30T04:37:28;4.10;99.90
33414;DHT22;60055;41.884;12.534;2023-01-30T04:39:53;4.10;99.90
33414;DHT22;60055;41.884;12.534;2023-01-30T04:42:19;4.20;99.90
33414;DHT22;60055;41.884;12.534;2023-01-30T04:44:48;4.30;99.90
33414;DHT22;60055;41.884;12.534;2023-01-30T04:47:14;4.10;99.90
33414;DHT22;60055;41.884;12.534;2023-01-30T04:49:43;4.10;99.90
33414;DHT22;60055;41.884;12.534;2023-01-30T04:52:08;4.10;99.90
33414;DHT22;60055;41.884;12.534;2023-01-30T04:54:34;4.10;99.90
33414;DHT22;60055;41.884;12.534;2023-01-30T04:57:00;4.10;99.90
33414;DHT22;60055;41.884;12.534;2023-01-30T04:59:25;4.10;99.90
33414;DHT22;60055;41.884;12.534;2023-01-30T05:01:51;4.00;99.90
33414;DHT22;60055;41.884;12.534;2023-01-30T05:04:17;4.10;99.90
33414;DHT22;60055;41.884;12.534;2023-01-30T05:06:42;4.00;99.90
33414;DHT22;60055;41.884;12.534;2023-01-30T05:09:11;4.10;99.90
33414;DHT22;60055;41.884;12.534;2023-01-30T05:11:37;4.20;99.90
33414;DHT22;60055;41.884;12.534;2023-01-30T05:14:02;4.10;99.90
33414;DHT22;60055;41.884;12.534;2023-01-30T05:16:28;4.10;99.90
33414;DHT22;60055;41.884;12.534;2023-01-30T05:18:59;4.20;99.90
33414;DHT22;60055;41.884;12.534;2023-01-30T05:21:26;4.20;99.90
33414;DHT22;60055;41.884;12.534;2023-01-30T05:23:56;4.20;99.90
33414;DHT22;60055;41.884;12.534;2023-01-30T05:26:22;4.10;99.90
33414;DHT22;60055;41.884;12.534;2023-01-30T05:28:51;4.10;99.90
33414;DHT22;60055;41.884;12.534;2023-01-30T05:31:19;4.10;99.90
33414;DHT22;60055;41.884;12.534;2023-01-30T05:33:46;3.90;99.90
33414;DHT22;60055;41.884;12.534;2023-01-30T05:36:14;4.10;99.90
33414;DHT22;60055;41.884;12.534;2023-01-30T05:38:45;4.20;99.90
33414;DHT22;60055;41.884;12.534;2023-01-30T05:41:12;4.20;99.90
33414;DHT22;60055;41.884;12.534;2023-01-30T05:43:38;4.10;99.90
33414;DHT22;60055;41.884;12.534;2023-01-30T05:46:05;4.00;99.90
33414;DHT22;60055;41.884;12.534;2023-01-30T05:48:31;4.10;99.90
33414;DHT22;60055;41.884;12.534;2023-01-30T05:50:58;3.80;99.90
33414;DHT22;60055;41.884;12.534;2023-01-30T05:53:27;3.90;99.90
33414;DHT22;60055;41.884;12.534;2023-01-30T05:55:57;3.90;99.90
33414;DHT22;60055;41.884;12.534;2023-01-30T05:58:23;3.90;99.90
33414;DHT22;60055;41.884;12.534;2023-01-30T06:00:49;3.90;99.90
33414;DHT22;60055;41.884;12.534;2023-01-30T06:03:15;3.90;99.90
33414;DHT22;60055;41.884;12.534;2023-01-30T06:05:42;4.10;99.90
33414;DHT22;60055;41.884;12.534;2023-01-30T06:08:08;3.90;99.90
33414;DHT22;60055;41.884;12.534;2023-01-30T06:10:34;3.80;99.90
33414;DHT22;60055;41.884;12.534;2023-01-30T06:13:00;3.80;99.90
33414;DHT22;60055;41.884;12.534;2023-01-30T06:15:26;3.80;99.90
33414;DHT22;60055;41.884;12.534;2023-01-30T06:17:53;3.70;99.90
33414;DHT22;60055;41.884;12.534;2023-01-30T06:20:19;3.70;99.90
33414;DHT22;60055;41.884;12.534;2023-01-30T06:22:44;3.60;99.90
33414;DHT22;60055;41.884;12.534;2023-01-30T06:25:10;3.70;99.90
33414;DHT22;60055;41.884;12.534;2023-01-30T06:27:36;3.70;99.90
33414;DHT22;60055;41.884;12.534;2023-01-30T06:30:02;3.70;99.90
33414;DHT22;60055;41.884;12.534;2023-01-30T06:32:27;3.60;99.90
33414;DHT22;60055;41.884;12.534;2023-01-30T06:34:53;3.80;99.90
33414;DHT22;60055;41.884;12.534;2023-01-30T06:37:19;3.70;99.90
33414;DHT22;60055;41.884;12.534;2023-01-30T06:39:44;3.80;99.90
33414;DHT22;60055;41.884;12.534;2023-01-30T06:42:10;3.80;99.90
33414;DHT22;60055;41.884;12.534;2023-01-30T06:44:35;3.80;99.90
33414;DHT22;60055;41.884;12.534;2023-01-30T06:47:01;3.80;99.90
33414;DHT22;60055;41.884;12.534;2023-01-30T06:49:30;3.80;99.90
33414;DHT22;60055;41.884;12.534;2023-01-30T06:51:55;3.90;99.90
33414;DHT22;60055;41.884;12.534;2023-01-30T06:54:21;3.80;99.90
33414;DHT22;60055;41.884;12.534;2023-01-30T06:56:47;3.80;99.90
33414;DHT22;60055;41.884;12.534;2023-01-30T06:59:12;3.80;99.90
33414;DHT22;60055;41.884;12.534;2023-01-30T07:01:38;3.90;99.90
33414;DHT22;60055;41.884;12.534;2023-01-30T07:04:04;3.90;99.90
33414;DHT22;60055;41.884;12.534;2023-01-30T07:06:29;3.80;99.90
33414;DHT22;60055;41.884;12.534;2023-01-30T07:08:55;3.90;99.90
33414;DHT22;60055;41.884;12.534;2023-01-30T07:11:27;3.90;99.90
33414;DHT22;60055;41.884;12.534;2023-01-30T07:13:52;3.90;99.90
33414;DHT22;60055;41.884;12.534;2023-01-30T07:16:18;3.90;99.90
33414;DHT22;60055;41.884;12.534;2023-01-30T07:18:44;4.00;99.90
33414;DHT22;60055;41.884;12.534;2023-01-30T07:21:09;4.10;99.90
33414;DHT22;60055;41.884;12.534;2023-01-30T07:23:35;4.10;99.90
33414;DHT22;60055;41.884;12.534;2023-01-30T07:26:05;4.10;99.90
33414;DHT22;60055;41.884;12.534;2023-01-30T07:28:31;3.90;99.90
33414;DHT22;60055;41.884;12.534;2023-01-30T07:30:59;4.00;99.90
33414;DHT22;60055;41.884;12.534;2023-01-30T07:33:25;4.00;99.90
33414;DHT22;60055;41.884;12.534;2023-01-30T07:35:51;4.00;99.90
33414;DHT22;60055;41.884;12.534;2023-01-30T07:38:17;4.10;99.90
33414;DHT22;60055;41.884;12.534;2023-01-30T07:40:42;3.90;99.90
33414;DHT22;60055;41.884;12.534;2023-01-30T07:43:10;4.10;99.90
33414;DHT22;60055;41.884;12.534;2023-01-30T07:45:41;4.10;99.90
33414;DHT22;60055;41.884;12.534;2023-01-30T07:48:09;4.20;99.90
33414;DHT22;60055;41.884;12.534;2023-01-30T07:50:35;4.20;99.90
33414;DHT22;60055;41.884;12.534;2023-01-30T07:53:03;4.60;99.90
33414;DHT22;60055;41.884;12.534;2023-01-30T07:55:28;4.60;99.90
33414;DHT22;60055;41.884;12.534;2023-01-30T07:57:54;4.80;99.90
33414;DHT22;60055;41.884;12.534;2023-01-30T08:00:20;4.90;99.90
33414;DHT22;60055;41.884;12.534;2023-01-30T08:02:47;4.90;99.90
33414;DHT22;60055;41.884;12.534;2023-01-30T08:05:13;5.10;99.90
33414;DHT22;60055;41.884;12.534;2023-01-30T08:07:39;5.20;99.90
33414;DHT22;60055;41.884;12.534;2023-01-30T08:10:05;5.30;99.90
33414;DHT22;60055;41.884;12.534;2023-01-30T08:12:32;5.40;99.90
33414;DHT22;60055;41.884;12.534;2023-01-30T08:14:58;5.60;99.90
33414;DHT22;60055;41.884;12.534;2023-01-30T08:17:24;5.40;99.90
33414;DHT22;60055;41.884;12.534;2023-01-30T08:19:49;5.80;99.90
33414;DHT22;60055;41.884;12.534;2023-01-30T08:22:16;5.90;99.90
33414;DHT22;60055;41.884;12.534;2023-01-30T08:24:43;5.70;99.90
33414;DHT22;60055;41.884;12.534;2023-01-30T08:27:08;5.50;99.90
33414;DHT22;60055;41.884;12.534;2023-01-30T08:29:34;5.80;99.90
33414;DHT22;60055;41.884;12.534;2023-01-30T08:32:00;6.10;99.90
33414;DHT22;60055;41.884;12.534;2023-01-30T08:34:26;6.50;99.90
33414;DHT22;60055;41.884;12.534;2023-01-30T08:36:52;6.70;99.90
33414;DHT22;60055;41.884;12.534;2023-01-30T08:39:18;6.70;99.90
33414;DHT22;60055;41.884;12.534;2023-01-30T08:41:45;6.70;99.90
33414;DHT22;60055;41.884;12.534;2023-01-30T08:44:11;6.70;99.90
33414;DHT22;60055;41.884;12.534;2023-01-30T08:46:38;6.80;99.90
33414;DHT22;60055;41.884;12.534;2023-01-30T08:49:04;6.80;99.90
33414;DHT22;60055;41.884;12.534;2023-01-30T08:51:31;7.00;99.90
33414;DHT22;60055;41.884;12.534;2023-01-30T08:53:57;7.30;99.90
33414;DHT22;60055;41.884;12.534;2023-01-30T08:56:23;7.30;99.90
33414;DHT22;60055;41.884;12.534;2023-01-30T08:58:49;7.50;99.90
33414;DHT22;60055;41.884;12.534;2023-01-30T09:01:15;7.50;99.90
33414;DHT22;60055;41.884;12.534;2023-01-30T09:03:41;7.40;99.90
33414;DHT22;60055;41.884;12.534;2023-01-30T09:06:08;7.40;99.90
33414;DHT22;60055;41.884;12.534;2023-01-30T09:08:33;7.40;99.90
33414;DHT22;60055;41.884;12.534;2023-01-30T09:11:00;7.60;99.90
33414;DHT22;60055;41.884;12.534;2023-01-30T09:13:26;7.70;99.90
33414;DHT22;60055;41.884;12.534;2023-01-30T09:15:53;7.70;99.90
33414;DHT22;60055;41.884;12.534;2023-01-30T09:18:18;7.80;99.90
33414;DHT22;60055;41.884;12.534;2023-01-30T09:20:47;7.90;99.90
33414;DHT22;60055;41.884;12.534;2023-01-30T09:23:12;8.30;99.90
33414;DHT22;60055;41.884;12.534;2023-01-30T09:25:38;8.20;99.90
33414;DHT22;60055;41.884;12.534;2023-01-30T09:28:04;7.80;99.90
33414;DHT22;60055;41.884;12.534;2023-01-30T09:30:30;7.80;99.90
33414;DHT22;60055;41.884;12.534;2023-01-30T09:32:55;7.80;99.90
33414;DHT22;60055;41.884;12.534;2023-01-30T09:35:21;8.10;99.90
33414;DHT22;60055;41.884;12.534;2023-01-30T09:37:48;7.70;99.90
33414;DHT22;60055;41.884;12.534;2023-01-30T09:40:17;7.40;99.90
33414;DHT22;60055;41.884;12.534;2023-01-30T09:55:58;7.90;99.90
33414;DHT22;60055;41.884;12.534;2023-01-30T09:58:30;8.00;99.90
33414;DHT22;60055;41.884;12.534;2023-01-30T10:01:04;8.40;99.90
33414;DHT22;60055;41.884;12.534;2023-01-30T10:03:40;8.40;99.90
33414;DHT22;60055;41.884;12.534;2023-01-30T10:06:12;9.30;99.90
33414;DHT22;60055;41.884;12.534;2023-01-30T10:08:51;9.90;99.90
33414;DHT22;60055;41.884;12.534;2023-01-30T10:17:22;9.40;99.90
33414;DHT22;60055;41.884;12.534;2023-01-30T10:25:44;8.70;99.90
33414;DHT22;60055;41.884;12.534;2023-01-30T10:28:29;8.60;99.90
33414;DHT22;60055;41.884;12.534;2023-01-30T10:31:04;8.70;99.90
33414;DHT22;60055;41.884;12.534;2023-01-30T10:33:39;9.70;99.90
33414;DHT22;60055;41.884;12.534;2023-01-30T10:36:42;9.50;99.90
33414;DHT22;60055;41.884;12.534;2023-01-30T10:39:19;9.20;99.90
33414;DHT22;60055;41.884;12.534;2023-01-30T10:42:08;8.80;99.90
33414;DHT22;60055;41.884;12.534;2023-01-30T10:44:33;9.30;99.90
33414;DHT22;60055;41.884;12.534;2023-01-30T10:52:38;9.10;99.90
33414;DHT22;60055;41.884;12.534;2023-01-30T10:55:22;9.10;99.90
33414;DHT22;60055;41.884;12.534;2023-01-30T10:58:26;9.10;99.90
33414;DHT22;60055;41.884;12.534;2023-01-30T11:01:09;10.00;99.90
33414;DHT22;60055;41.884;12.534;2023-01-30T11:03:45;10.70;99.90
33414;DHT22;60055;41.884;12.534;2023-01-30T11:06:17;9.80;99.90
33414;DHT22;60055;41.884;12.534;2023-01-30T11:08:45;9.80;99.90
33414;DHT22;60055;41.884;12.534;2023-01-30T11:14:01;9.20;99.90
33414;DHT22;60055;41.884;12.534;2023-01-30T11:16:27;9.50;99.90
33414;DHT22;60055;41.884;12.534;2023-01-30T11:18:53;9.70;99.90
33414;DHT22;60055;41.884;12.534;2023-01-30T11:21:25;9.00;99.90
33414;DHT22;60055;41.884;12.534;2023-01-30T11:23:53;9.30;99.90
33414;DHT22;60055;41.884;12.534;2023-01-30T11:26:29;9.60;99.90
33414;DHT22;60055;41.884;12.534;2023-01-30T11:29:36;9.30;99.90
33414;DHT22;60055;41.884;12.534;2023-01-30T11:32:05;9.20;99.90
33414;DHT22;60055;41.884;12.534;2023-01-30T11:34:37;9.40;99.90
33414;DHT22;60055;41.884;12.534;2023-01-30T11:37:42;9.40;99.90
33414;DHT22;60055;41.884;12.534;2023-01-30T11:40:24;9.00;99.90
33414;DHT22;60055;41.884;12.534;2023-01-30T11:43:02;9.10;99.90
33414;DHT22;60055;41.884;12.534;2023-01-30T11:45:32;9.10;99.90
33414;DHT22;60055;41.884;12.534;2023-01-30T11:48:05;9.30;99.90
33414;DHT22;60055;41.884;12.534;2023-01-30T11:50:41;9.40;99.90
33414;DHT22;60055;41.884;12.534;2023-01-30T11:53:57;9.70;99.90
33414;DHT22;60055;41.884;12.534;2023-01-30T11:56:51;9.60;99.90
33414;DHT22;60055;41.884;12.534;2023-01-30T11:59:34;9.40;99.90
33414;DHT22;60055;41.884;12.534;2023-01-30T12:02:28;9.40;99.90
33414;DHT22;60055;41.884;12.534;2023-01-30T12:05:02;9.60;99.90
33414;DHT22;60055;41.884;12.534;2023-01-30T12:07:32;9.80;99.90
33414;DHT22;60055;41.884;12.534;2023-01-30T12:09:58;9.70;99.90
33414;DHT22;60055;41.884;12.534;2023-01-30T12:17:43;10.20;99.90
33414;DHT22;60055;41.884;12.534;2023-01-30T12:20:22;10.20;99.90
33414;DHT22;60055;41.884;12.534;2023-01-30T12:25:42;10.40;99.90
33414;DHT22;60055;41.884;12.534;2023-01-30T12:31:24;10.40;99.90
33414;DHT22;60055;41.884;12.534;2023-01-30T12:33:55;10.50;99.90
33414;DHT22;60055;41.884;12.534;2023-01-30T12:41:35;10.40;99.90
33414;DHT22;60055;41.884;12.534;2023-01-30T12:50:14;10.70;99.90
33414;DHT22;60055;41.884;12.534;2023-01-30T13:07:00;10.80;99.90
33414;DHT22;60055;41.884;12.534;2023-01-30T13:18:00;10.80;99.90
33414;DHT22;60055;41.884;12.534;2023-01-30T13:20:43;10.80;99.90
33414;DHT22;60055;41.884;12.534;2023-01-30T13:26:05;10.90;99.90
33414;DHT22;60055;41.884;12.534;2023-01-30T13:29:41;11.20;99.90
33414;DHT22;60055;41.884;12.534;2023-01-30T13:31:36;11.30;99.90
33414;DHT22;60055;41.884;12.534;2023-01-30T13:34:44;11.20;99.90
33414;DHT22;60055;41.884;12.534;2023-01-30T13:37:07;11.10;99.90
33414;DHT22;60055;41.884;12.534;2023-01-30T13:39:45;11.30;99.90
33414;DHT22;60055;41.884;12.534;2023-01-30T13:44:57;11.30;99.90
33414;DHT22;60055;41.884;12.534;2023-01-30T13:58:52;11.00;99.90
33414;DHT22;60055;41.884;12.534;2023-01-30T14:01:20;10.80;99.90
33414;DHT22;60055;41.884;12.534;2023-01-30T14:03:47;11.00;99.90
33414;DHT22;60055;41.884;12.534;2023-01-30T14:06:32;10.90;99.90
33414;DHT22;60055;41.884;12.534;2023-01-30T14:09:02;10.60;99.90
33414;DHT22;60055;41.884;12.534;2023-01-30T14:14:21;10.60;99.90
33414;DHT22;60055;41.884;12.534;2023-01-30T14:16:50;10.80;99.90
33414;DHT22;60055;41.884;12.534;2023-01-30T14:19:39;10.80;99.90
33414;DHT22;60055;41.884;12.534;2023-01-30T14:22:22;11.00;99.90
33414;DHT22;60055;41.884;12.534;2023-01-30T14:32:59;11.00;99.90
33414;DHT22;60055;41.884;12.534;2023-01-30T14:35:29;11.00;99.90
33414;DHT22;60055;41.884;12.534;2023-01-30T14:38:13;10.90;99.90
33414;DHT22;60055;41.884;12.534;2023-01-30T14:41:24;10.90;99.90
33414;DHT22;60055;41.884;12.534;2023-01-30T14:43:37;10.80;99.90
33414;DHT22;60055;41.884;12.534;2023-01-30T14:51:31;10.70;99.90
33414;DHT22;60055;41.884;12.534;2023-01-30T14:54:34;10.80;99.90
33414;DHT22;60055;41.884;12.534;2023-01-30T14:57:18;10.70;99.90
33414;DHT22;60055;41.884;12.534;2023-01-30T14:59:53;10.90;99.90
33414;DHT22;60055;41.884;12.534;2023-01-30T15:02:26;10.80;99.90
33414;DHT22;60055;41.884;12.534;2023-01-30T15:05:05;10.90;99.90
33414;DHT22;60055;41.884;12.534;2023-01-30T15:07:52;10.90;99.90
33414;DHT22;60055;41.884;12.534;2023-01-30T15:13:50;10.70;99.90
33414;DHT22;60055;41.884;12.534;2023-01-30T15:32:38;10.70;99.90
33414;DHT22;60055;41.884;12.534;2023-01-30T15:35:21;10.50;99.90
33414;DHT22;60055;41.884;12.534;2023-01-30T15:37:51;10.50;99.90
33414;DHT22;60055;41.884;12.534;2023-01-30T15:40:23;10.60;99.90
33414;DHT22;60055;41.884;12.534;2023-01-30T15:50:50;10.40;99.90
33414;DHT22;60055;41.884;12.534;2023-01-30T15:53:28;10.40;99.90
33414;DHT22;60055;41.884;12.534;2023-01-30T15:55:56;10.40;99.90
33414;DHT22;60055;41.884;12.534;2023-01-30T15:58:23;10.30;99.90
33414;DHT22;60055;41.884;12.534;2023-01-30T16:00:59;10.30;99.90
33414;DHT22;60055;41.884;12.534;2023-01-30T16:03:29;10.20;99.90
33414;DHT22;60055;41.884;12.534;2023-01-30T16:05:56;10.10;99.90
33414;DHT22;60055;41.884;12.534;2023-01-30T16:08:27;10.00;99.90
33414;DHT22;60055;41.884;12.534;2023-01-30T16:10:53;9.90;99.90
33414;DHT22;60055;41.884;12.534;2023-01-30T16:13:19;9.90;99.90
33414;DHT22;60055;41.884;12.534;2023-01-30T16:18:32;9.80;99.90
33414;DHT22;60055;41.884;12.534;2023-01-30T16:21:05;9.80;99.90
33414;DHT22;60055;41.884;12.534;2023-01-30T16:23:36;9.80;99.90
33414;DHT22;60055;41.884;12.534;2023-01-30T16:26:06;9.80;99.90
33414;DHT22;60055;41.884;12.534;2023-01-30T16:28:32;9.70;99.90
33414;DHT22;60055;41.884;12.534;2023-01-30T16:31:06;9.60;99.90
33414;DHT22;60055;41.884;12.534;2023-01-30T16:33:32;9.60;99.90
33414;DHT22;60055;41.884;12.534;2023-01-30T16:36:05;9.60;99.90
33414;DHT22;60055;41.884;12.534;2023-01-30T16:38:46;9.50;99.90
33414;DHT22;60055;41.884;12.534;2023-01-30T16:41:34;9.50;99.90
33414;DHT22;60055;41.884;12.534;2023-01-30T16:49:39;9.40;99.90
33414;DHT22;60055;41.884;12.534;2023-01-30T16:52:37;9.40;99.90
33414;DHT22;60055;41.884;12.534;2023-01-30T16:55:21;9.40;99.90
33414;DHT22;60055;41.884;12.534;2023-01-30T16:57:53;9.40;99.90
33414;DHT22;60055;41.884;12.534;2023-01-30T17:00:25;9.40;99.90
33414;DHT22;60055;41.884;12.534;2023-01-30T17:02:56;9.30;99.90
33414;DHT22;60055;41.884;12.534;2023-01-30T17:05:27;9.20;99.90
33414;DHT22;60055;41.884;12.534;2023-01-30T17:07:57;9.20;99.90
33414;DHT22;60055;41.884;12.534;2023-01-30T17:12:54;9.20;99.90
33414;DHT22;60055;41.884;12.534;2023-01-30T17:17:48;9.10;99.90
33414;DHT22;60055;41.884;12.534;2023-01-30T17:20:14;9.10;99.90
33414;DHT22;60055;41.884;12.534;2023-01-30T17:22:45;9.10;99.90
33414;DHT22;60055;41.884;12.534;2023-01-30T17:25:30;9.10;99.90
33414;DHT22;60055;41.884;12.534;2023-01-30T17:27:57;9.10;99.90
33414;DHT22;60055;41.884;12.534;2023-01-30T17:30:23;9.10;99.90
33414;DHT22;60055;41.884;12.534;2023-01-30T17:32:49;9.10;99.90
33414;DHT22;60055;41.884;12.534;2023-01-30T17:35:16;9.10;99.90
33414;DHT22;60055;41.884;12.534;2023-01-30T17:37:42;9.00;99.90
33414;DHT22;60055;41.884;12.534;2023-01-30T17:40:32;9.10;99.90
33414;DHT22;60055;41.884;12.534;2023-01-30T17:42:58;9.10;99.90
33414;DHT22;60055;41.884;12.534;2023-01-30T17:45:24;9.10;99.90
33414;DHT22;60055;41.884;12.534;2023-01-30T17:47:49;9.10;99.90
33414;DHT22;60055;41.884;12.534;2023-01-30T17:50:15;9.10;99.90
33414;DHT22;60055;41.884;12.534;2023-01-30T17:52:41;9.00;99.90
33414;DHT22;60055;41.884;12.534;2023-01-30T17:55:10;9.00;99.90
33414;DHT22;60055;41.884;12.534;2023-01-30T17:57:37;9.00;99.90
33414;DHT22;60055;41.884;12.534;2023-01-30T18:00:04;9.10;99.90
33414;DHT22;60055;41.884;12.534;2023-01-30T18:02:30;9.10;99.90
33414;DHT22;60055;41.884;12.534;2023-01-30T18:04:58;9.10;99.90
33414;DHT22;60055;41.884;12.534;2023-01-30T18:07:26;9.10;99.90
33414;DHT22;60055;41.884;12.534;2023-01-30T18:09:52;9.20;99.90
33414;DHT22;60055;41.884;12.534;2023-01-30T18:12:19;9.10;99.90
33414;DHT22;60055;41.884;12.534;2023-01-30T18:14:45;9.20;99.90
33414;DHT22;60055;41.884;12.534;2023-01-30T18:17:11;9.20;99.90
33414;DHT22;60055;41.884;12.534;2023-01-30T18:19:36;9.10;99.90
33414;DHT22;60055;41.884;12.534;2023-01-30T18:22:02;9.10;99.90
33414;DHT22;60055;41.884;12.534;2023-01-30T18:24:28;9.20;99.90
33414;DHT22;60055;41.884;12.534;2023-01-30T18:26:54;9.30;99.90
33414;DHT22;60055;41.884;12.534;2023-01-30T18:29:20;9.20;99.90
33414;DHT22;60055;41.884;12.534;2023-01-30T18:31:46;9.10;99.90
33414;DHT22;60055;41.884;12.534;2023-01-30T18:34:13;9.20;99.90
33414;DHT22;60055;41.884;12.534;2023-01-30T18:36:40;9.20;99.90
33414;DHT22;60055;41.884;12.534;2023-01-30T18:39:05;9.30;99.90
33414;DHT22;60055;41.884;12.534;2023-01-30T18:41:33;9.30;99.90
33414;DHT22;60055;41.884;12.534;2023-01-30T18:44:02;9.30;99.90